sensor_id;sensor_type;location;lat;lon;timestamp;P1;durP1;ratioP1;P2;durP2;ratioP2
9102;SDS011;4587;51.434;6.788;2023-04-01T00:00:16;5.30;;;2.20;;
9102;SDS011;4587;51.434;6.788;2023-04-01T00:02:42;6.20;;;2.73;;
9102;SDS011;4587;51.434;6.788;2023-04-01T00:05:08;7.17;;;3.03;;
9102;SDS011;4587;51.434;6.788;2023-04-01T00:07:35;6.23;;;2.60;;
9102;SDS011;4587;51.434;6.788;2023-04-01T00:10:01;8.37;;;3.43;;
9102;SDS011;4587;51.434;6.788;2023-04-01T00:12:28;7.70;;;3.57;;
9102;SDS011;4587;51.434;6.788;2023-04-01T00:14:53;7.33;;;3.40;;
9102;SDS011;4587;51.434;6.788;2023-04-01T00:17:19;6.57;;;2.67;;
9102;SDS011;4587;51.434;6.788;2023-04-01T00:19:45;6.33;;;2.50;;
9102;SDS011;4587;51.434;6.788;2023-04-01T00:22:10;6.83;;;3.40;;
9102;SDS011;4587;51.434;6.788;2023-04-01T00:24:37;7.67;;;2.60;;
9102;SDS011;4587;51.434;6.788;2023-04-01T00:27:02;6.63;;;2.50;;
9102;SDS011;4587;51.434;6.788;2023-04-01T00:29:28;6.57;;;3.60;;
9102;SDS011;4587;51.434;6.788;2023-04-01T00:31:56;11.47;;;5.00;;
9102;SDS011;4587;51.434;6.788;2023-04-01T00:34:22;13.00;;;5.50;;
9102;SDS011;4587;51.434;6.788;2023-04-01T00:36:48;11.90;;;6.17;;
9102;SDS011;4587;51.434;6.788;2023-04-01T00:39:15;12.17;;;5.30;;
9102;SDS011;4587;51.434;6.788;2023-04-01T00:41:41;10.30;;;5.47;;
9102;SDS011;4587;51.434;6.788;2023-04-01T00:46:44;9.33;;;4.93;;
9102;SDS011;4587;51.434;6.788;2023-04-01T00:49:10;7.10;;;2.93;;
9102;SDS011;4587;51.434;6.788;2023-04-01T00:51:35;6.03;;;2.60;;
9102;SDS011;4587;51.434;6.788;2023-04-01T00:54:03;4.27;;;1.90;;
9102;SDS011;4587;51.434;6.788;2023-04-01T00:56:32;4.53;;;2.00;;
9102;SDS011;4587;51.434;6.788;2023-04-01T00:59:08;5.80;;;2.10;;
9102;SDS011;4587;51.434;6.788;2023-04-01T01:01:47;4.60;;;2.30;;
9102;SDS011;4587;51.434;6.788;2023-04-01T01:04:45;6.87;;;2.60;;
9102;SDS011;4587;51.434;6.788;2023-04-01T01:20:42;7.43;;;4.60;;
9102;SDS011;4587;51.434;6.788;2023-04-01T01:31:37;6.60;;;3.47;;
9102;SDS011;4587;51.434;6.788;2023-04-01T01:34:15;5.93;;;4.03;;
9102;SDS011;4587;51.434;6.788;2023-04-01T01:36:48;7.83;;;4.90;;
9102;SDS011;4587;51.434;6.788;2023-04-01T01:39:20;8.50;;;4.13;;
9102;SDS011;4587;51.434;6.788;2023-04-01T01:41:51;7.33;;;2.83;;
9102;SDS011;4587;51.434;6.788;2023-04-01T01:44:18;5.47;;;2.47;;
9102;SDS011;4587;51.434;6.788;2023-04-01T01:46:46;6.67;;;2.10;;
9102;SDS011;4587;51.434;6.788;2023-04-01T01:49:13;7.10;;;3.17;;
9102;SDS011;4587;51.434;6.788;2023-04-01T01:51:40;6.03;;;2.80;;
9102;SDS011;4587;51.434;6.788;2023-04-01T01:54:11;6.20;;;2.90;;
9102;SDS011;4587;51.434;6.788;2023-04-01T01:56:38;7.83;;;3.40;;
9102;SDS011;4587;51.434;6.788;2023-04-01T01:59:05;6.83;;;3.30;;
9102;SDS011;4587;51.434;6.788;2023-04-01T02:01:35;5.93;;;2.87;;
9102;SDS011;4587;51.434;6.788;2023-04-01T02:04:05;5.37;;;2.40;;
9102;SDS011;4587;51.434;6.788;2023-04-01T02:06:32;4.60;;;2.20;;
9102;SDS011;4587;51.434;6.788;2023-04-01T02:09:02;7.70;;;4.07;;
9102;SDS011;4587;51.434;6.788;2023-04-01T02:11:32;8.27;;;5.97;;
9102;SDS011;4587;51.434;6.788;2023-04-01T02:14:11;8.20;;;5.10;;
9102;SDS011;4587;51.434;6.788;2023-04-01T02:16:39;7.60;;;4.50;;
9102;SDS011;4587;51.434;6.788;2023-04-01T02:19:06;6.40;;;3.73;;
9102;SDS011;4587;51.434;6.788;2023-04-01T02:21:34;4.67;;;2.80;;
9102;SDS011;4587;51.434;6.788;2023-04-01T02:24:02;4.80;;;2.37;;
9102;SDS011;4587;51.434;6.788;2023-04-01T02:26:30;4.60;;;2.60;;
9102;SDS011;4587;51.434;6.788;2023-04-01T02:28:56;4.87;;;2.07;;
9102;SDS011;4587;51.434;6.788;2023-04-01T02:31:23;6.03;;;2.10;;
9102;SDS011;4587;51.434;6.788;2023-04-01T02:33:50;6.73;;;2.00;;
9102;SDS011;4587;51.434;6.788;2023-04-01T02:36:17;3.10;;;1.40;;
9102;SDS011;4587;51.434;6.788;2023-04-01T02:38:43;1.73;;;0.93;;
9102;SDS011;4587;51.434;6.788;2023-04-01T02:41:10;1.97;;;0.90;;
9102;SDS011;4587;51.434;6.788;2023-04-01T02:43:36;2.43;;;0.80;;
9102;SDS011;4587;51.434;6.788;2023-04-01T02:46:02;2.23;;;1.00;;
9102;SDS011;4587;51.434;6.788;2023-04-01T02:48:28;4.37;;;1.20;;
9102;SDS011;4587;51.434;6.788;2023-04-01T02:50:54;2.67;;;1.10;;
9102;SDS011;4587;51.434;6.788;2023-04-01T02:53:19;3.73;;;1.17;;
9102;SDS011;4587;51.434;6.788;2023-04-01T02:55:45;3.23;;;1.30;;
9102;SDS011;4587;51.434;6.788;2023-04-01T02:58:11;3.00;;;0.90;;
9102;SDS011;4587;51.434;6.788;2023-04-01T03:00:37;2.23;;;1.00;;
9102;SDS011;4587;51.434;6.788;2023-04-01T03:03:02;1.87;;;0.77;;
9102;SDS011;4587;51.434;6.788;2023-04-01T03:05:28;1.43;;;0.80;;
9102;SDS011;4587;51.434;6.788;2023-04-01T03:07:54;2.43;;;0.93;;
9102;SDS011;4587;51.434;6.788;2023-04-01T03:10:20;2.40;;;0.87;;
9102;SDS011;4587;51.434;6.788;2023-04-01T03:12:46;2.23;;;1.10;;
9102;SDS011;4587;51.434;6.788;2023-04-01T03:15:12;2.77;;;1.20;;
9102;SDS011;4587;51.434;6.788;2023-04-01T03:17:39;2.80;;;1.50;;
9102;SDS011;4587;51.434;6.788;2023-04-01T03:20:06;2.57;;;1.40;;
9102;SDS011;4587;51.434;6.788;2023-04-01T03:22:33;3.20;;;1.40;;
9102;SDS011;4587;51.434;6.788;2023-04-01T03:25:00;2.73;;;1.30;;
9102;SDS011;4587;51.434;6.788;2023-04-01T03:27:26;3.13;;;1.30;;
9102;SDS011;4587;51.434;6.788;2023-04-01T03:29:51;3.13;;;0.90;;
9102;SDS011;4587;51.434;6.788;2023-04-01T03:32:17;1.60;;;0.70;;
9102;SDS011;4587;51.434;6.788;2023-04-01T03:34:42;1.77;;;0.80;;
9102;SDS011;4587;51.434;6.788;2023-04-01T03:37:08;1.73;;;0.70;;
9102;SDS011;4587;51.434;6.788;2023-04-01T03:39:33;2.27;;;0.87;;
9102;SDS011;4587;51.434;6.788;2023-04-01T03:42:00;2.27;;;0.80;;
9102;SDS011;4587;51.434;6.788;2023-04-01T03:44:25;2.53;;;1.03;;
9102;SDS011;4587;51.434;6.788;2023-04-01T03:46:55;3.10;;;1.13;;
9102;SDS011;4587;51.434;6.788;2023-04-01T03:49:20;3.87;;;1.10;;
9102;SDS011;4587;51.434;6.788;2023-04-01T03:51:46;1.53;;;0.87;;
9102;SDS011;4587;51.434;6.788;2023-04-01T03:54:11;3.37;;;1.33;;
9102;SDS011;4587;51.434;6.788;2023-04-01T03:56:38;2.20;;;1.17;;
9102;SDS011;4587;51.434;6.788;2023-04-01T03:59:04;2.63;;;1.47;;
9102;SDS011;4587;51.434;6.788;2023-04-01T04:01:32;3.43;;;1.80;;
9102;SDS011;4587;51.434;6.788;2023-04-01T04:03:57;2.90;;;1.60;;
9102;SDS011;4587;51.434;6.788;2023-04-01T04:06:24;2.43;;;1.90;;
9102;SDS011;4587;51.434;6.788;2023-04-01T04:08:50;2.90;;;2.40;;
9102;SDS011;4587;51.434;6.788;2023-04-01T04:11:15;5.37;;;2.90;;
9102;SDS011;4587;51.434;6.788;2023-04-01T04:13:41;4.20;;;2.57;;
9102;SDS011;4587;51.434;6.788;2023-04-01T04:16:08;4.37;;;2.80;;
9102;SDS011;4587;51.434;6.788;2023-04-01T04:18:34;4.60;;;3.13;;
9102;SDS011;4587;51.434;6.788;2023-04-01T04:21:01;4.27;;;2.90;;
9102;SDS011;4587;51.434;6.788;2023-04-01T04:23:27;4.07;;;2.73;;
9102;SDS011;4587;51.434;6.788;2023-04-01T04:25:55;3.00;;;1.90;;
9102;SDS011;4587;51.434;6.788;2023-04-01T04:28:23;2.50;;;1.47;;
9102;SDS011;4587;51.434;6.788;2023-04-01T04:30:50;1.33;;;1.20;;
9102;SDS011;4587;51.434;6.788;2023-04-01T04:33:16;2.17;;;1.37;;
9102;SDS011;4587;51.434;6.788;2023-04-01T04:35:42;1.97;;;1.20;;
9102;SDS011;4587;51.434;6.788;2023-04-01T04:38:07;2.00;;;1.13;;
9102;SDS011;4587;51.434;6.788;2023-04-01T04:40:33;1.57;;;0.97;;
9102;SDS011;4587;51.434;6.788;2023-04-01T04:43:01;1.13;;;0.90;;
9102;SDS011;4587;51.434;6.788;2023-04-01T04:45:27;2.57;;;1.10;;
9102;SDS011;4587;51.434;6.788;2023-04-01T04:47:53;1.50;;;1.17;;
9102;SDS011;4587;51.434;6.788;2023-04-01T04:50:18;1.47;;;1.03;;
9102;SDS011;4587;51.434;6.788;2023-04-01T04:52:44;1.13;;;1.00;;
9102;SDS011;4587;51.434;6.788;2023-04-01T04:55:09;1.43;;;0.97;;
9102;SDS011;4587;51.434;6.788;2023-04-01T04:57:35;1.47;;;1.20;;
9102;SDS011;4587;51.434;6.788;2023-04-01T05:00:00;2.27;;;1.10;;
9102;SDS011;4587;51.434;6.788;2023-04-01T05:02:26;1.73;;;1.10;;
9102;SDS011;4587;51.434;6.788;2023-04-01T05:04:51;1.33;;;0.93;;
9102;SDS011;4587;51.434;6.788;2023-04-01T05:07:17;1.30;;;1.10;;
9102;SDS011;4587;51.434;6.788;2023-04-01T05:09:42;2.50;;;1.20;;
9102;SDS011;4587;51.434;6.788;2023-04-01T05:12:10;2.83;;;1.40;;
9102;SDS011;4587;51.434;6.788;2023-04-01T05:14:37;1.97;;;1.20;;
9102;SDS011;4587;51.434;6.788;2023-04-01T05:17:03;2.10;;;1.47;;
9102;SDS011;4587;51.434;6.788;2023-04-01T05:19:29;1.60;;;1.50;;
9102;SDS011;4587;51.434;6.788;2023-04-01T05:21:55;2.30;;;2.10;;
9102;SDS011;4587;51.434;6.788;2023-04-01T05:24:20;3.13;;;2.03;;
9102;SDS011;4587;51.434;6.788;2023-04-01T05:26:46;2.20;;;2.00;;
9102;SDS011;4587;51.434;6.788;2023-04-01T05:29:11;3.27;;;2.63;;
9102;SDS011;4587;51.434;6.788;2023-04-01T05:31:37;2.53;;;2.33;;
9102;SDS011;4587;51.434;6.788;2023-04-01T05:34:02;2.70;;;2.30;;
9102;SDS011;4587;51.434;6.788;2023-04-01T05:36:28;2.20;;;2.00;;
9102;SDS011;4587;51.434;6.788;2023-04-01T05:38:56;2.70;;;2.50;;
9102;SDS011;4587;51.434;6.788;2023-04-01T05:41:22;3.37;;;2.50;;
9102;SDS011;4587;51.434;6.788;2023-04-01T05:43:47;2.50;;;2.30;;
9102;SDS011;4587;51.434;6.788;2023-04-01T05:46:13;3.33;;;2.70;;
9102;SDS011;4587;51.434;6.788;2023-04-01T05:48:39;2.80;;;2.60;;
9102;SDS011;4587;51.434;6.788;2023-04-01T05:51:04;2.53;;;2.33;;
9102;SDS011;4587;51.434;6.788;2023-04-01T05:53:30;3.40;;;2.80;;
9102;SDS011;4587;51.434;6.788;2023-04-01T05:55:56;3.10;;;2.90;;
9102;SDS011;4587;51.434;6.788;2023-04-01T05:58:21;3.60;;;3.13;;
9102;SDS011;4587;51.434;6.788;2023-04-01T06:00:47;3.33;;;3.03;;
9102;SDS011;4587;51.434;6.788;2023-04-01T06:03:12;3.20;;;3.00;;
9102;SDS011;4587;51.434;6.788;2023-04-01T06:05:42;3.30;;;3.10;;
9102;SDS011;4587;51.434;6.788;2023-04-01T06:08:09;3.60;;;3.30;;
9102;SDS011;4587;51.434;6.788;2023-04-01T06:10:40;3.50;;;3.20;;
9102;SDS011;4587;51.434;6.788;2023-04-01T06:13:41;4.40;;;3.27;;
9102;SDS011;4587;51.434;6.788;2023-04-01T06:24:35;4.07;;;3.67;;
9102;SDS011;4587;51.434;6.788;2023-04-01T06:30:16;4.33;;;3.93;;
9102;SDS011;4587;51.434;6.788;2023-04-01T06:43:34;4.10;;;3.80;;
9102;SDS011;4587;51.434;6.788;2023-04-01T06:46:13;4.17;;;3.87;;
9102;SDS011;4587;51.434;6.788;2023-04-01T06:54:04;4.70;;;4.20;;
9102;SDS011;4587;51.434;6.788;2023-04-01T06:56:58;4.57;;;4.17;;
9102;SDS011;4587;51.434;6.788;2023-04-01T06:59:31;4.53;;;4.13;;
9102;SDS011;4587;51.434;6.788;2023-04-01T07:02:14;4.10;;;3.70;;
9102;SDS011;4587;51.434;6.788;2023-04-01T07:04:50;4.10;;;3.70;;
9102;SDS011;4587;51.434;6.788;2023-04-01T07:07:53;3.60;;;3.30;;
9102;SDS011;4587;51.434;6.788;2023-04-01T07:12:58;3.20;;;2.97;;
9102;SDS011;4587;51.434;6.788;2023-04-01T07:15:36;4.47;;;2.70;;
9102;SDS011;4587;51.434;6.788;2023-04-01T07:18:09;3.80;;;2.80;;
9102;SDS011;4587;51.434;6.788;2023-04-01T07:20:46;3.30;;;3.00;;
9102;SDS011;4587;51.434;6.788;2023-04-01T07:23:29;3.77;;;3.00;;
9102;SDS011;4587;51.434;6.788;2023-04-01T07:26:06;2.80;;;2.60;;
9102;SDS011;4587;51.434;6.788;2023-04-01T07:28:43;2.80;;;2.60;;
9102;SDS011;4587;51.434;6.788;2023-04-01T07:33:56;3.00;;;2.80;;
9102;SDS011;4587;51.434;6.788;2023-04-01T07:36:44;3.03;;;2.80;;
9102;SDS011;4587;51.434;6.788;2023-04-01T07:39:36;3.17;;;2.90;;
9102;SDS011;4587;51.434;6.788;2023-04-01T07:50:28;3.23;;;2.93;;
9102;SDS011;4587;51.434;6.788;2023-04-01T07:53:06;4.57;;;3.30;;
9102;SDS011;4587;51.434;6.788;2023-04-01T08:01:26;4.03;;;3.60;;
9102;SDS011;4587;51.434;6.788;2023-04-01T08:06:45;4.10;;;3.70;;
9102;SDS011;4587;51.434;6.788;2023-04-01T08:12:31;5.07;;;4.23;;
9102;SDS011;4587;51.434;6.788;2023-04-01T08:15:36;5.03;;;4.37;;
9102;SDS011;4587;51.434;6.788;2023-04-01T08:21:08;4.43;;;3.97;;
9102;SDS011;4587;51.434;6.788;2023-04-01T08:23:47;4.63;;;3.80;;
9102;SDS011;4587;51.434;6.788;2023-04-01T08:26:28;4.23;;;3.90;;
9102;SDS011;4587;51.434;6.788;2023-04-01T08:29:17;4.10;;;3.80;;
9102;SDS011;4587;51.434;6.788;2023-04-01T08:31:50;4.87;;;4.20;;
9102;SDS011;4587;51.434;6.788;2023-04-01T08:34:28;4.20;;;3.67;;
9102;SDS011;4587;51.434;6.788;2023-04-01T08:37:05;4.37;;;4.03;;
9102;SDS011;4587;51.434;6.788;2023-04-01T08:39:34;4.37;;;3.90;;
9102;SDS011;4587;51.434;6.788;2023-04-01T08:47:50;4.20;;;3.63;;
9102;SDS011;4587;51.434;6.788;2023-04-01T08:58:37;5.43;;;4.30;;
9102;SDS011;4587;51.434;6.788;2023-04-01T09:06:52;5.17;;;4.40;;
9102;SDS011;4587;51.434;6.788;2023-04-01T09:15:18;5.13;;;4.63;;
9102;SDS011;4587;51.434;6.788;2023-04-01T09:32:42;6.73;;;6.13;;
9102;SDS011;4587;51.434;6.788;2023-04-01T09:35:23;10.47;;;7.13;;
9102;SDS011;4587;51.434;6.788;2023-04-01T09:43:21;9.13;;;7.50;;
9102;SDS011;4587;51.434;6.788;2023-04-01T09:51:50;8.17;;;7.00;;
9102;SDS011;4587;51.434;6.788;2023-04-01T09:54:32;7.80;;;7.10;;
9102;SDS011;4587;51.434;6.788;2023-04-01T10:09:01;9.53;;;8.60;;
9102;SDS011;4587;51.434;6.788;2023-04-01T10:25:46;13.40;;;9.60;;
9102;SDS011;4587;51.434;6.788;2023-04-01T10:31:22;9.43;;;8.27;;
9102;SDS011;4587;51.434;6.788;2023-04-01T10:33:57;8.80;;;7.90;;
9102;SDS011;4587;51.434;6.788;2023-04-01T10:44:58;11.90;;;9.17;;
9102;SDS011;4587;51.434;6.788;2023-04-01T10:59:07;15.53;;;11.83;;
9102;SDS011;4587;51.434;6.788;2023-04-01T11:15:25;16.43;;;10.67;;
9102;SDS011;4587;51.434;6.788;2023-04-01T11:18:29;10.43;;;9.30;;
9102;SDS011;4587;51.434;6.788;2023-04-01T11:24:04;11.77;;;9.97;;
9102;SDS011;4587;51.434;6.788;2023-04-01T11:27:01;12.17;;;10.33;;
9102;SDS011;4587;51.434;6.788;2023-04-01T11:29:43;11.33;;;9.87;;
9102;SDS011;4587;51.434;6.788;2023-04-01T11:35:12;12.43;;;9.83;;
9102;SDS011;4587;51.434;6.788;2023-04-01T11:43:20;11.03;;;9.63;;
9102;SDS011;4587;51.434;6.788;2023-04-01T11:46:10;11.60;;;9.37;;
9102;SDS011;4587;51.434;6.788;2023-04-01T12:08:00;9.50;;;8.60;;
9102;SDS011;4587;51.434;6.788;2023-04-01T12:13:30;10.83;;;9.73;;
9102;SDS011;4587;51.434;6.788;2023-04-01T12:18:42;9.67;;;8.70;;
9102;SDS011;4587;51.434;6.788;2023-04-01T12:23:56;7.77;;;6.70;;
9102;SDS011;4587;51.434;6.788;2023-04-01T12:26:39;7.73;;;7.07;;
9102;SDS011;4587;51.434;6.788;2023-04-01T12:32:32;7.20;;;6.57;;
9102;SDS011;4587;51.434;6.788;2023-04-01T12:35:17;7.23;;;6.60;;
9102;SDS011;4587;51.434;6.788;2023-04-01T12:41:43;7.10;;;6.47;;
9102;SDS011;4587;51.434;6.788;2023-04-01T12:54:41;9.33;;;8.30;;
9102;SDS011;4587;51.434;6.788;2023-04-01T13:00:24;9.30;;;8.40;;
9102;SDS011;4587;51.434;6.788;2023-04-01T13:08:53;14.90;;;10.00;;
9102;SDS011;4587;51.434;6.788;2023-04-01T13:11:36;14.33;;;10.43;;
9102;SDS011;4587;51.434;6.788;2023-04-01T13:14:27;20.77;;;11.50;;
9102;SDS011;4587;51.434;6.788;2023-04-01T13:17:18;17.97;;;10.53;;
9102;SDS011;4587;51.434;6.788;2023-04-01T13:22:57;14.30;;;10.77;;
9102;SDS011;4587;51.434;6.788;2023-04-01T13:31:21;15.97;;;9.67;;
9102;SDS011;4587;51.434;6.788;2023-04-01T13:36:51;11.53;;;8.53;;
9102;SDS011;4587;51.434;6.788;2023-04-01T13:39:51;15.60;;;10.97;;
9102;SDS011;4587;51.434;6.788;2023-04-01T13:42:28;14.67;;;11.33;;
9102;SDS011;4587;51.434;6.788;2023-04-01T13:53:48;14.27;;;11.40;;
9102;SDS011;4587;51.434;6.788;2023-04-01T14:05:09;10.13;;;8.13;;
9102;SDS011;4587;51.434;6.788;2023-04-01T14:11:06;8.80;;;8.00;;
9102;SDS011;4587;51.434;6.788;2023-04-01T14:13:56;10.40;;;7.63;;
9102;SDS011;4587;51.434;6.788;2023-04-01T14:27:37;7.50;;;6.70;;
9102;SDS011;4587;51.434;6.788;2023-04-01T14:33:24;6.90;;;6.30;;
9102;SDS011;4587;51.434;6.788;2023-04-01T14:38:47;7.60;;;6.40;;
9102;SDS011;4587;51.434;6.788;2023-04-01T14:41:19;7.10;;;6.50;;
9102;SDS011;4587;51.434;6.788;2023-04-01T14:46:52;6.43;;;5.87;;
9102;SDS011;4587;51.434;6.788;2023-04-01T14:50:02;6.10;;;5.60;;
9102;SDS011;4587;51.434;6.788;2023-04-01T14:52:38;6.37;;;5.77;;
9102;SDS011;4587;51.434;6.788;2023-04-01T14:58:04;6.33;;;5.77;;
9102;SDS011;4587;51.434;6.788;2023-04-01T15:00:41;5.87;;;5.27;;
9102;SDS011;4587;51.434;6.788;2023-04-01T15:08:44;5.97;;;5.37;;
9102;SDS011;4587;51.434;6.788;2023-04-01T15:14:13;6.73;;;6.13;;
9102;SDS011;4587;51.434;6.788;2023-04-01T15:20:10;7.20;;;6.50;;
9102;SDS011;4587;51.434;6.788;2023-04-01T15:28:35;5.87;;;5.27;;
9102;SDS011;4587;51.434;6.788;2023-04-01T15:31:11;5.63;;;5.13;;
9102;SDS011;4587;51.434;6.788;2023-04-01T15:42:06;5.27;;;4.77;;
9102;SDS011;4587;51.434;6.788;2023-04-01T15:44:57;5.40;;;4.90;;
9102;SDS011;4587;51.434;6.788;2023-04-01T15:47:39;5.30;;;4.90;;
9102;SDS011;4587;51.434;6.788;2023-04-01T15:50:52;5.50;;;4.70;;
9102;SDS011;4587;51.434;6.788;2023-04-01T16:04:12;5.23;;;4.63;;
9102;SDS011;4587;51.434;6.788;2023-04-01T16:09:56;5.30;;;4.80;;
9102;SDS011;4587;51.434;6.788;2023-04-01T16:18:18;4.60;;;4.20;;
9102;SDS011;4587;51.434;6.788;2023-04-01T16:21:02;4.83;;;4.43;;
9102;SDS011;4587;51.434;6.788;2023-04-01T16:32:31;5.63;;;4.80;;
9102;SDS011;4587;51.434;6.788;2023-04-01T16:41:36;5.33;;;4.83;;
9102;SDS011;4587;51.434;6.788;2023-04-01T16:44:23;5.07;;;4.63;;
9102;SDS011;4587;51.434;6.788;2023-04-01T16:46:51;5.77;;;5.00;;
9102;SDS011;4587;51.434;6.788;2023-04-01T16:52:16;5.83;;;5.23;;
9102;SDS011;4587;51.434;6.788;2023-04-01T16:55:02;6.30;;;5.70;;
9102;SDS011;4587;51.434;6.788;2023-04-01T16:57:47;6.40;;;5.80;;
9102;SDS011;4587;51.434;6.788;2023-04-01T17:00:27;7.60;;;6.00;;
9102;SDS011;4587;51.434;6.788;2023-04-01T17:03:13;6.47;;;5.97;;
9102;SDS011;4587;51.434;6.788;2023-04-01T17:08:36;7.20;;;6.60;;
9102;SDS011;4587;51.434;6.788;2023-04-01T17:11:12;6.77;;;6.17;;
9102;SDS011;4587;51.434;6.788;2023-04-01T17:14:04;7.87;;;7.10;;
9102;SDS011;4587;51.434;6.788;2023-04-01T17:16:56;7.90;;;7.20;;
9102;SDS011;4587;51.434;6.788;2023-04-01T17:27:36;8.17;;;7.47;;
9102;SDS011;4587;51.434;6.788;2023-04-01T17:55:59;8.93;;;8.13;;
9102;SDS011;4587;51.434;6.788;2023-04-01T17:59:19;10.17;;;9.27;;
9102;SDS011;4587;51.434;6.788;2023-04-01T18:28:04;10.40;;;9.50;;
9102;SDS011;4587;51.434;6.788;2023-04-01T18:30:44;10.63;;;9.63;;
9102;SDS011;4587;51.434;6.788;2023-04-01T18:33:23;10.23;;;9.33;;
9102;SDS011;4587;51.434;6.788;2023-04-01T18:36:09;11.30;;;10.30;;
9102;SDS011;4587;51.434;6.788;2023-04-01T18:39:01;10.80;;;9.80;;
9102;SDS011;4587;51.434;6.788;2023-04-01T18:42:03;10.90;;;9.93;;
9102;SDS011;4587;51.434;6.788;2023-04-01T18:44:57;11.10;;;10.10;;
9102;SDS011;4587;51.434;6.788;2023-04-01T18:54:00;12.10;;;10.90;;
9102;SDS011;4587;51.434;6.788;2023-04-01T18:56:21;11.70;;;10.60;;
9102;SDS011;4587;51.434;6.788;2023-04-01T19:01:39;11.60;;;10.50;;
9102;SDS011;4587;51.434;6.788;2023-04-01T19:06:49;10.53;;;9.53;;
9102;SDS011;4587;51.434;6.788;2023-04-01T19:17:32;10.77;;;9.87;;
9102;SDS011;4587;51.434;6.788;2023-04-01T19:25:54;7.60;;;6.90;;
9102;SDS011;4587;51.434;6.788;2023-04-01T19:36:56;3.43;;;3.23;;
9102;SDS011;4587;51.434;6.788;2023-04-01T19:39:58;2.80;;;2.60;;
9102;SDS011;4587;51.434;6.788;2023-04-01T19:45:23;2.40;;;2.20;;
9102;SDS011;4587;51.434;6.788;2023-04-01T19:48:09;2.60;;;2.40;;
9102;SDS011;4587;51.434;6.788;2023-04-01T19:54:09;3.03;;;2.20;;
9102;SDS011;4587;51.434;6.788;2023-04-01T19:56:47;2.27;;;2.17;;
9102;SDS011;4587;51.434;6.788;2023-04-01T19:59:22;2.33;;;2.17;;
9102;SDS011;4587;51.434;6.788;2023-04-01T20:15:33;2.63;;;2.43;;
9102;SDS011;4587;51.434;6.788;2023-04-01T20:18:15;2.60;;;2.40;;
9102;SDS011;4587;51.434;6.788;2023-04-01T20:20:54;2.70;;;2.50;;
9102;SDS011;4587;51.434;6.788;2023-04-01T20:25:57;3.60;;;3.30;;
9102;SDS011;4587;51.434;6.788;2023-04-01T20:31:30;4.10;;;3.80;;
9102;SDS011;4587;51.434;6.788;2023-04-01T20:37:02;4.07;;;3.77;;
9102;SDS011;4587;51.434;6.788;2023-04-01T20:39:54;3.87;;;3.60;;
9102;SDS011;4587;51.434;6.788;2023-04-01T20:42:34;4.20;;;3.90;;
9102;SDS011;4587;51.434;6.788;2023-04-01T20:50:55;3.90;;;3.50;;
9102;SDS011;4587;51.434;6.788;2023-04-01T20:53:43;3.23;;;3.00;;
9102;SDS011;4587;51.434;6.788;2023-04-01T20:56:17;2.77;;;2.57;;
9102;SDS011;4587;51.434;6.788;2023-04-01T21:05:27;2.70;;;2.50;;
9102;SDS011;4587;51.434;6.788;2023-04-01T21:08:02;2.73;;;2.53;;
9102;SDS011;4587;51.434;6.788;2023-04-01T21:16:49;5.83;;;3.20;;
9102;SDS011;4587;51.434;6.788;2023-04-01T21:19:30;3.27;;;3.00;;
9102;SDS011;4587;51.434;6.788;2023-04-01T21:37:05;2.90;;;2.17;;
9102;SDS011;4587;51.434;6.788;2023-04-01T22:06:30;3.43;;;3.20;;
9102;SDS011;4587;51.434;6.788;2023-04-01T22:09:20;3.60;;;3.40;;
9102;SDS011;4587;51.434;6.788;2023-04-01T22:14:33;3.80;;;3.50;;
9102;SDS011;4587;51.434;6.788;2023-04-01T22:30:55;4.37;;;3.97;;
9102;SDS011;4587;51.434;6.788;2023-04-01T22:38:53;3.57;;;3.30;;
9102;SDS011;4587;51.434;6.788;2023-04-01T22:41:34;3.97;;;3.67;;
9102;SDS011;4587;51.434;6.788;2023-04-01T22:44:05;4.20;;;3.90;;
9102;SDS011;4587;51.434;6.788;2023-04-01T22:49:36;3.87;;;3.57;;
9102;SDS011;4587;51.434;6.788;2023-04-01T22:52:27;3.80;;;3.50;;
9102;SDS011;4587;51.434;6.788;2023-04-01T22:55:04;3.40;;;3.10;;
9102;SDS011;4587;51.434;6.788;2023-04-01T22:57:52;3.03;;;2.83;;
9102;SDS011;4587;51.434;6.788;2023-04-01T23:00:30;3.10;;;2.90;;
9102;SDS011;4587;51.434;6.788;2023-04-01T23:05:34;2.73;;;2.53;;
9102;SDS011;4587;51.434;6.788;2023-04-01T23:10:56;3.07;;;2.87;;
9102;SDS011;4587;51.434;6.788;2023-04-01T23:13:38;3.60;;;3.30;;
9102;SDS011;4587;51.434;6.788;2023-04-01T23:16:13;5.10;;;3.60;;
9102;SDS011;4587;51.434;6.788;2023-04-01T23:21:30;3.90;;;3.60;;
9102;SDS011;4587;51.434;6.788;2023-04-01T23:24:15;4.50;;;4.20;;
9102;SDS011;4587;51.434;6.788;2023-04-01T23:27:01;3.57;;;3.27;;
9102;SDS011;4587;51.434;6.788;2023-04-01T23:29:35;3.87;;;3.50;;
9102;SDS011;4587;51.434;6.788;2023-04-01T23:32:05;4.00;;;3.70;;
9102;SDS011;4587;51.434;6.788;2023-04-01T23:34:39;4.33;;;3.93;;
9102;SDS011;4587;51.434;6.788;2023-04-01T23:37:16;4.37;;;4.00;;
9102;SDS011;4587;51.434;6.788;2023-04-01T23:39:57;4.20;;;3.90;;
9102;SDS011;4587;51.434;6.788;2023-04-01T23:45:05;3.70;;;3.40;;
9102;SDS011;4587;51.434;6.788;2023-04-01T23:47:39;3.13;;;2.90;;
9102;SDS011;4587;51.434;6.788;2023-04-01T23:50:07;3.00;;;2.80;;
9102;SDS011;4587;51.434;6.788;2023-04-01T23:52:48;3.07;;;2.77;;
9102;SDS011;4587;51.434;6.788;2023-04-01T23:55:25;2.87;;;2.60;;
